Time;durP1;ratioP1;P1;durP2;ratioP2;P2;SDS_P1;SDS_P2;PMS_P1;PMS_P2;Temp;Humidity;BMP_temperature;BMP_pressure;BME280_temperature;BME280_humidity;BME280_pressure;Samples;Min_cycle;Max_cycle;Signal;HPM_P1;HPM_P2
2022/08/18 00:02:23;;;;;;;51.05;37.20;;;;;;;18.14;92.75;100999.09;5046855;28;20097;-83
2022/08/18 00:04:49;;;;;;;57.95;36.70;;;;;;;18.11;93.21;101002.13;5047374;28;20036;-84
2022/08/18 00:07:18;;;;;;;46.85;33.50;;;;;;;18.07;93.68;100996.47;5048976;28;20044;-84
2022/08/18 00:09:45;;;;;;;51.53;34.13;;;;;;;18.08;93.52;100998.06;5030395;28;20505;-83
2022/08/18 00:12:30;;;;;;;46.85;32.80;;;;;;;18.05;93.20;101004.53;5049372;28;20029;-84
2022/08/18 00:14:56;;;;;;;52.95;34.85;;;;;;;17.97;92.21;101009.97;5067405;28;20025;-83
2022/08/18 00:17:22;;;;;;;43.58;31.83;;;;;;;17.93;92.27;101015.81;5034214;28;20802;-83
2022/08/18 00:19:58;;;;;;;55.28;35.97;;;;;;;17.91;91.57;101013.38;5050541;28;20063;-83
2022/08/18 00:22:24;;;;;;;46.20;32.83;;;;;;;17.89;91.90;101018.03;5045415;28;20128;-84
2022/08/18 00:24:53;;;;;;;45.35;32.90;;;;;;;17.89;91.84;101020.66;5046624;28;20117;-83
2022/08/18 00:27:29;;;;;;;47.00;33.67;;;;;;;17.92;91.39;101022.88;5065817;28;20500;-83
2022/08/18 00:29:58;;;;;;;49.33;32.65;;;;;;;17.94;91.20;101030.56;5046063;28;20587;-84
2022/08/18 00:32:32;;;;;;;48.92;34.33;;;;;;;17.95;90.88;101022.50;5047855;28;20028;-83
2022/08/18 00:35:14;;;;;;;52.22;34.85;;;;;;;17.93;91.27;101031.56;5045171;28;20020;-84
2022/08/18 00:37:41;;;;;;;47.33;33.88;;;;;;;17.89;91.90;101033.75;5043412;28;20062;-83
2022/08/18 00:40:10;;;;;;;48.25;34.33;;;;;;;17.87;91.89;101041.03;5043404;28;20626;-82
2022/08/18 00:42:43;;;;;;;49.63;36.78;;;;;;;17.84;92.00;101036.16;5041324;28;20029;-82
2022/08/18 00:45:13;;;;;;;48.95;34.00;;;;;;;17.72;92.92;101043.78;5028002;28;20171;-83
2022/08/18 00:47:39;;;;;;;54.47;38.90;;;;;;;17.73;93.75;101044.59;5043808;28;20736;-82
2022/08/18 00:50:06;;;;;;;53.28;37.45;;;;;;;17.70;95.10;101046.59;5044912;28;20064;-82
2022/08/18 00:52:35;;;;;;;53.95;36.85;;;;;;;17.73;96.51;101044.59;5042892;28;20084;-83
2022/08/18 00:55:02;;;;;;;68.90;44.78;;;;;;;17.74;98.22;101043.59;5040374;28;20036;-82
2022/08/18 00:57:30;;;;;;;63.60;43.28;;;;;;;17.72;98.98;101038.53;5041916;28;20061;-82
2022/08/18 01:00:11;;;;;;;60.30;39.85;;;;;;;17.68;100.00;101045.19;5031106;28;20123;-83
2022/08/18 01:02:44;;;;;;;69.22;43.80;;;;;;;17.64;100.00;101044.75;5044816;28;20033;-82
2022/08/18 01:05:32;;;;;;;70.40;43.77;;;;;;;17.66;100.00;101034.88;5034179;28;20124;-82
2022/08/18 01:07:58;;;;;;;59.53;39.17;;;;;;;17.66;100.00;101032.25;5030783;28;20037;-83
2022/08/18 01:10:24;;;;;;;62.60;39.33;;;;;;;17.66;100.00;101031.47;5046687;28;20032;-82
2022/08/18 01:12:58;;;;;;;61.78;40.47;;;;;;;17.70;100.00;101024.81;5031562;28;20044;-83
2022/08/18 01:15:25;;;;;;;56.50;37.47;;;;;;;17.70;100.00;101022.97;5044286;28;20056;-83
2022/08/18 01:23:46;;;;;;;61.20;38.38;;;;;;;17.78;100.00;101011.53;4981996;28;20042;-83
2022/08/18 01:26:13;;;;;;;57.05;38.15;;;;;;;17.78;100.00;101016.78;4983478;28;20042;-83
2022/08/18 01:28:41;;;;;;;55.65;36.92;;;;;;;17.83;100.00;101018.78;5006982;28;20044;-83
2022/08/18 01:31:08;;;;;;;58.13;38.78;;;;;;;17.83;100.00;101016.16;5041496;28;20064;-83
2022/08/18 01:33:41;;;;;;;58.13;37.20;;;;;;;17.84;100.00;101009.94;5048355;28;20043;-83
2022/08/18 01:36:15;;;;;;;62.03;38.75;;;;;;;17.86;100.00;101013.19;5027571;28;20093;-83
2022/08/18 01:38:45;;;;;;;79.43;48.40;;;;;;;17.89;100.00;101010.97;5029970;28;20040;-82
2022/08/18 01:41:11;;;;;;;68.93;43.47;;;;;;;17.87;100.00;101017.41;5046783;28;20033;-84
2022/08/18 01:43:37;;;;;;;72.82;45.58;;;;;;;17.92;100.00;101025.50;5029960;28;20033;-82
2022/08/18 01:46:05;;;;;;;71.85;42.80;;;;;;;17.93;100.00;101023.69;5048581;28;20040;-83
2022/08/18 01:48:34;;;;;;;75.15;46.85;;;;;;;17.88;100.00;101034.78;5048709;28;20124;-83
2022/08/18 01:51:02;;;;;;;77.57;45.05;;;;;;;17.90;100.00;101032.78;5029152;28;20476;-83
2022/08/18 01:53:28;;;;;;;65.45;39.30;;;;;;;17.86;100.00;101034.19;5044536;28;21087;-84
2022/08/18 01:55:54;;;;;;;62.50;37.00;;;;;;;17.84;100.00;101034.38;5047218;28;20567;-84
2022/08/18 01:58:26;;;;;;;77.13;44.80;;;;;;;17.90;100.00;101038.00;5047027;28;20047;-83
2022/08/18 02:00:57;;;;;;;80.80;45.17;;;;;;;17.89;100.00;101034.59;5034494;28;20051;-84
2022/08/18 02:03:25;;;;;;;69.88;41.20;;;;;;;17.89;100.00;101037.22;5029249;28;20124;-82
2022/08/18 02:05:56;;;;;;;71.60;42.22;;;;;;;17.86;100.00;101045.47;5032496;28;20025;-84
2022/08/18 02:08:21;;;;;;;67.85;39.40;;;;;;;17.94;100.00;101054.16;5050936;28;20565;-83
2022/08/18 02:10:47;;;;;;;62.25;35.20;;;;;;;17.90;100.00;101049.31;5035353;28;20016;-84
2022/08/18 02:13:12;;;;;;;58.10;34.50;;;;;;;17.88;100.00;101043.44;5052472;28;20086;-84
2022/08/18 02:15:38;;;;;;;62.40;36.42;;;;;;;17.86;100.00;101042.03;5055090;28;20529;-84
2022/08/18 02:18:03;;;;;;;51.85;32.70;;;;;;;17.85;100.00;101048.28;5051638;28;20047;-84
2022/08/18 02:20:29;;;;;;;58.30;34.00;;;;;;;17.83;100.00;101042.41;5052793;28;20638;-82
2022/08/18 02:22:57;;;;;;;59.97;36.13;;;;;;;17.94;100.00;101041.84;5035564;28;20079;-83
2022/08/18 02:25:23;;;;;;;57.65;33.78;;;;;;;17.90;100.00;101040.63;5039213;28;20083;-84
2022/08/18 02:27:48;;;;;;;50.58;30.70;;;;;;;17.87;100.00;101038.41;5030299;28;20039;-84
2022/08/18 02:30:17;;;;;;;57.83;34.88;;;;;;;17.90;100.00;101030.94;5046787;28;20531;-84
2022/08/18 02:32:43;;;;;;;54.60;33.70;;;;;;;17.88;100.00;101029.53;5050442;28;20040;-83
2022/08/18 02:35:10;;;;;;;60.20;35.88;;;;;;;17.95;100.00;101032.16;5032777;28;20028;-84
2022/08/18 02:37:36;;;;;;;55.35;34.13;;;;;;;17.96;100.00;101039.03;5048730;28;20052;-84
2022/08/18 02:40:03;;;;;;;57.10;34.90;;;;;;;17.93;100.00;101031.56;5035397;28;20179;-84
2022/08/18 02:42:29;;;;;;;59.10;35.40;;;;;;;17.93;100.00;101027.09;5049590;28;20115;-83
2022/08/18 02:44:56;;;;;;;52.67;32.25;;;;;;;17.92;100.00;101022.88;5034884;28;20029;-84
2022/08/18 02:47:21;;;;;;;58.90;36.58;;;;;;;17.96;100.00;101024.09;5033666;28;20024;-84
2022/08/18 02:49:48;;;;;;;60.78;34.22;;;;;;;17.97;100.00;101030.97;5035441;28;20074;-84
2022/08/18 02:52:14;;;;;;;60.85;36.75;;;;;;;18.02;100.00;101014.63;5047482;28;20028;-84
2022/08/18 02:54:39;;;;;;;58.53;33.80;;;;;;;17.99;100.00;101015.00;5032658;28;20025;-85
2022/08/18 02:57:08;;;;;;;53.53;34.10;;;;;;;17.98;100.00;101016.84;5047510;28;20036;-84
2022/08/18 02:59:33;;;;;;;59.72;35.05;;;;;;;17.97;100.00;101004.75;5049711;28;20394;-83
2022/08/18 03:01:59;;;;;;;60.67;34.90;;;;;;;17.97;100.00;101007.38;5039131;28;20482;-84
2022/08/18 03:04:26;;;;;;;51.47;31.08;;;;;;;17.97;100.00;101017.84;5036437;28;20135;-85
2022/08/18 03:06:57;;;;;;;62.13;36.40;;;;;;;17.99;100.00;101015.84;5065363;28;20051;-82
2022/08/18 03:09:23;;;;;;;58.95;33.58;;;;;;;17.98;100.00;101016.84;5038235;28;20530;-85
2022/08/18 03:11:48;;;;;;;55.80;33.92;;;;;;;18.01;100.00;101010.41;5036593;28;20020;-84
2022/08/18 03:14:15;;;;;;;63.05;37.47;;;;;;;18.05;100.00;101003.72;5058371;28;20031;-84
2022/08/18 03:16:45;;;;;;;57.38;33.60;;;;;;;18.04;100.00;101007.34;5033700;28;20056;-84
2022/08/18 03:19:13;;;;;;;61.10;36.55;;;;;;;18.07;100.00;100999.09;5038278;28;20423;-84
2022/08/18 03:21:39;;;;;;;58.67;35.80;;;;;;;18.02;100.00;100991.81;5035718;28;21768;-85
2022/08/18 03:24:04;;;;;;;59.30;34.28;;;;;;;18.03;100.00;100993.44;5031742;28;20047;-84
2022/08/18 03:26:31;;;;;;;58.28;35.17;;;;;;;18.07;100.00;100988.59;5033395;28;20041;-84
2022/08/18 03:28:59;;;;;;;62.63;38.50;;;;;;;18.06;100.00;100987.78;5052306;28;20032;-84
2022/08/18 03:31:26;;;;;;;59.42;36.58;;;;;;;18.08;100.00;100971.84;5051584;28;20032;-85
2022/08/18 03:33:53;;;;;;;60.83;37.00;;;;;;;18.08;100.00;100975.28;5051445;28;20040;-84
2022/08/18 03:36:27;;;;;;;63.75;36.15;;;;;;;18.08;100.00;100985.78;5050646;28;20488;-84
2022/08/18 03:38:53;;;;;;;59.42;33.47;;;;;;;18.04;100.00;100987.16;5042704;28;20068;-84
2022/08/18 03:41:22;;;;;;;66.53;38.10;;;;;;;18.03;100.00;100996.06;5037517;28;20074;-84
2022/08/18 03:43:49;;;;;;;65.70;38.90;;;;;;;18.02;100.00;101004.13;5028097;28;20056;-84
2022/08/18 03:46:16;;;;;;;60.15;34.95;;;;;;;18.03;100.00;101008.38;5047657;28;20115;-84
2022/08/18 03:48:42;;;;;;;66.53;38.20;;;;;;;18.02;100.00;101004.94;5049219;28;20600;-85
2022/08/18 03:51:21;;;;;;;66.13;36.13;;;;;;;18.03;100.00;101003.13;5031703;28;20060;-84
2022/08/18 03:53:48;;;;;;;63.42;37.63;;;;;;;18.06;100.00;101002.72;5031223;28;20028;-84
2022/08/18 03:56:25;;;;;;;65.93;38.38;;;;;;;18.05;100.00;100990.63;5048235;28;20032;-84
2022/08/18 03:59:00;;;;;;;56.95;33.65;;;;;;;18.06;100.00;101000.91;5046909;28;20032;-85
2022/08/18 04:01:30;;;;;;;66.22;36.88;;;;;;;18.08;100.00;101004.16;5037619;28;20657;-84
2022/08/18 04:04:02;;;;;;;67.60;38.15;;;;;;;18.11;100.00;101010.00;5037281;28;20059;-84
2022/08/18 04:06:34;;;;;;;68.97;39.17;;;;;;;18.09;100.00;101004.94;5032373;28;20040;-85
2022/08/18 04:09:03;;;;;;;72.18;37.70;;;;;;;18.13;100.00;101008.78;5032663;28;21057;-84
2022/08/18 04:11:31;;;;;;;76.20;41.58;;;;;;;18.12;100.00;101012.44;5034003;28;20024;-83
2022/08/18 04:13:57;;;;;;;68.68;39.47;;;;;;;18.08;100.00;101009.41;5057677;28;20028;-85
2022/08/18 04:16:33;;;;;;;69.13;38.30;;;;;;;18.13;100.00;101013.22;5067978;28;20037;-85
2022/08/18 04:19:02;;;;;;;74.28;40.58;;;;;;;18.13;100.00;101015.84;5053601;28;20036;-84
2022/08/18 04:21:32;;;;;;;82.63;42.85;;;;;;;18.13;100.00;101010.59;5067670;28;20028;-84
2022/08/18 04:24:03;;;;;;;71.65;39.20;;;;;;;18.13;100.00;101006.16;5081614;28;20096;-84
2022/08/18 04:26:31;;;;;;;71.68;38.25;;;;;;;18.13;100.00;101011.41;5038548;28;20046;-85
2022/08/18 04:28:59;;;;;;;71.95;38.50;;;;;;;18.12;100.00;101011.59;5029832;28;20036;-84
2022/08/18 04:31:26;;;;;;;82.47;43.92;;;;;;;18.13;100.00;101003.53;5051203;28;20032;-84
2022/08/18 04:33:51;;;;;;;74.85;40.88;;;;;;;18.13;100.00;101002.72;5032881;28;20030;-84
2022/08/18 04:36:17;;;;;;;66.88;38.53;;;;;;;18.12;100.00;101001.94;5034819;28;20382;-84
2022/08/18 04:38:43;;;;;;;70.60;37.50;;;;;;;18.08;100.00;101001.53;5032569;28;20044;-84
2022/08/18 04:41:11;;;;;;;81.43;40.88;;;;;;;18.08;100.00;101000.69;5031857;28;20412;-84
2022/08/18 04:43:37;;;;;;;76.10;40.45;;;;;;;18.09;100.00;101003.13;5029178;28;20090;-84
2022/08/18 04:46:04;;;;;;;63.10;34.78;;;;;;;18.06;100.00;101003.53;5034681;28;20828;-84
2022/08/18 04:48:36;;;;;;;78.43;42.60;;;;;;;18.11;100.00;101004.75;5046651;28;20043;-84
2022/08/18 04:51:14;;;;;;;67.63;37.63;;;;;;;18.08;100.00;101013.81;5047541;28;20060;-84
2022/08/18 04:53:44;;;;;;;61.88;36.08;;;;;;;18.05;100.00;101009.78;5031069;28;20055;-85
2022/08/18 04:56:13;;;;;;;60.90;35.10;;;;;;;18.04;100.00;101008.16;5048466;28;20119;-83
2022/08/18 04:58:39;;;;;;;69.07;38.63;;;;;;;18.05;100.00;101012.41;5046752;28;20043;-85
2022/08/18 05:01:04;;;;;;;62.45;35.70;;;;;;;18.04;100.00;101013.41;5061342;28;20032;-84
2022/08/18 05:03:30;;;;;;;67.65;36.50;;;;;;;18.07;100.00;101020.09;5049314;28;20652;-84
2022/08/18 05:05:58;;;;;;;65.53;36.13;;;;;;;18.09;100.00;101021.50;5028300;28;20025;-85
2022/08/18 05:08:24;;;;;;;58.55;33.03;;;;;;;18.12;100.00;101027.34;5028706;28;20033;-84
2022/08/18 05:10:56;;;;;;;64.82;35.47;;;;;;;18.13;100.00;101027.16;5041755;28;20055;-84
2022/08/18 05:13:22;;;;;;;62.03;36.17;;;;;;;18.15;100.00;101032.19;5041425;28;20028;-85
2022/08/18 05:15:56;;;;;;;61.70;35.42;;;;;;;18.18;100.00;101032.59;5067602;28;20075;-85
2022/08/18 05:18:25;;;;;;;66.22;36.30;;;;;;;18.19;100.00;101036.84;5033794;28;20036;-84
2022/08/18 05:20:52;;;;;;;66.22;38.35;;;;;;;18.19;100.00;101034.22;5051439;28;20036;-84
2022/08/18 05:23:22;;;;;;;70.80;36.97;;;;;;;18.20;100.00;101041.09;5033876;28;20282;-84
2022/08/18 05:25:48;;;;;;;71.63;39.97;;;;;;;18.25;100.00;101043.94;5045212;28;20044;-84
2022/08/18 05:28:14;;;;;;;70.53;37.53;;;;;;;18.24;100.00;101044.91;5032458;28;20029;-84
2022/08/18 05:30:40;;;;;;;81.63;41.80;;;;;;;18.24;100.00;101052.00;5028344;28;20511;-84
2022/08/18 05:33:09;;;;;;;71.10;39.95;;;;;;;18.23;100.00;101053.00;5035164;28;20110;-84
2022/08/18 05:35:45;;;;;;;79.90;41.80;;;;;;;18.23;100.00;101053.00;5054517;28;20024;-84
2022/08/18 05:38:35;;;;;;;74.10;37.80;;;;;;;18.26;100.00;101057.84;5046638;28;20128;-84
2022/08/18 05:41:07;;;;;;;66.28;36.40;;;;;;;18.25;100.00;101064.09;5044551;28;20505;-84
2022/08/18 05:43:33;;;;;;;68.78;38.22;;;;;;;18.25;100.00;101066.72;5047632;28;20028;-84
2022/08/18 05:46:02;;;;;;;69.50;38.05;;;;;;;18.27;100.00;101060.28;5046476;28;20500;-84
2022/08/18 05:48:27;;;;;;;77.25;40.70;;;;;;;18.30;100.00;101059.06;5051006;28;20032;-84
2022/08/18 05:50:54;;;;;;;71.63;40.70;;;;;;;18.32;100.00;101061.50;5037938;28;20029;-84
2022/08/18 05:56:45;;;;;;;69.20;40.03;;;;;;;18.33;100.00;101063.91;5033956;28;20040;-85
2022/08/18 05:58:56;;;;;;;67.13;37.97;;;;;;;18.41;100.00;101068.97;5054008;28;20032;-84
2022/08/18 06:01:29;;;;;;;74.13;39.08;;;;;;;18.45;100.00;101072.00;5037613;28;20025;-84
2022/08/18 06:04:19;;;;;;;80.38;42.88;;;;;;;18.45;100.00;101064.91;5035233;28;20466;-83
2022/08/18 06:06:46;;;;;;;78.13;42.20;;;;;;;18.42;100.00;101067.97;5049491;28;20032;-84
2022/08/18 06:09:35;;;;;;;78.60;41.78;;;;;;;18.43;100.00;101069.56;5053709;28;20098;-84
2022/08/18 06:12:19;;;;;;;70.35;38.60;;;;;;;18.51;100.00;101075.63;5043033;28;20052;-84
2022/08/18 06:14:45;;;;;;;75.93;40.28;;;;;;;18.42;100.00;101075.84;5056368;28;20056;-84
2022/08/18 06:17:36;;;;;;;76.72;41.28;;;;;;;18.44;100.00;101084.31;5035613;28;20130;-83
2022/08/18 06:21:01;;;;;;;69.30;39.70;;;;;;;18.42;100.00;101086.34;5030695;28;20067;-84
2022/08/18 06:23:39;;;;;;;75.55;40.13;;;;;;;18.41;100.00;101089.97;4971751;28;20121;-83
2022/08/18 06:26:07;;;;;;;79.82;44.22;;;;;;;18.46;100.00;101092.00;5024457;28;20408;-83
2022/08/18 06:28:52;;;;;;;84.57;42.28;;;;;;;18.45;100.00;101088.53;5051456;28;20127;-84
2022/08/18 06:31:40;;;;;;;79.40;40.50;;;;;;;18.46;100.00;101094.63;5030181;28;20021;-84
2022/08/18 06:34:23;;;;;;;76.35;40.85;;;;;;;18.47;100.00;101089.16;5064601;28;20025;-84
2022/08/18 06:37:01;;;;;;;78.43;41.83;;;;;;;18.46;100.00;101095.44;5045974;28;20040;-84
2022/08/18 06:39:36;;;;;;;78.60;41.70;;;;;;;18.51;100.00;101096.63;5034412;28;20097;-84
2022/08/18 06:42:04;;;;;;;76.35;39.67;;;;;;;18.53;100.00;101098.03;5033883;28;20719;-83
2022/08/18 06:44:32;;;;;;;82.13;41.78;;;;;;;18.54;100.00;101099.66;5045887;28;20103;-84
2022/08/18 06:47:11;;;;;;;90.38;48.92;;;;;;;18.49;100.00;101095.00;5053262;28;20028;-84
2022/08/18 06:49:53;;;;;;;72.32;41.17;;;;;;;18.57;100.00;101099.28;5052247;28;20056;-84
2022/08/18 06:52:22;;;;;;;75.82;42.28;;;;;;;18.60;100.00;101103.31;5053780;28;20122;-84
2022/08/18 06:54:49;;;;;;;77.35;42.55;;;;;;;18.57;100.00;101103.69;5050202;28;20040;-83
2022/08/18 06:57:32;;;;;;;75.70;42.50;;;;;;;18.61;100.00;101105.75;5030337;28;20051;-84
2022/08/18 06:59:59;;;;;;;;;;;;;;;18.61;100.00;101103.13;5035755;28;20044;-83
2022/08/18 07:02:50;;;;;;;76.10;39.60;;;;;;;18.67;100.00;101114.63;5049626;28;19920;-84
2022/08/18 07:05:24;;;;;;;66.35;37.05;;;;;;;18.67;100.00;101112.81;5048960;28;20040;-83
2022/08/18 07:08:11;;;;;;;70.15;38.88;;;;;;;18.67;100.00;101117.25;5052832;28;20024;-85
2022/08/18 07:10:43;;;;;;;75.45;41.00;;;;;;;18.69;100.00;101109.97;5035113;28;20653;-82
2022/08/18 07:13:12;;;;;;;64.65;36.00;;;;;;;18.68;100.00;101110.97;5032820;28;20033;-84
2022/08/18 07:15:39;;;;;;;69.30;40.72;;;;;;;18.85;100.00;101121.91;5050086;28;20400;-85
2022/08/18 07:18:07;;;;;;;64.65;36.80;;;;;;;18.86;99.90;101119.09;5035506;28;20082;-85
2022/08/18 07:20:45;;;;;;;54.58;32.25;;;;;;;18.76;99.94;101113.41;5033345;28;20401;-86
2022/08/18 07:23:38;;;;;;;50.05;30.00;;;;;;;18.76;99.88;101117.84;5031650;28;20121;-85
2022/08/18 07:26:16;;;;;;;50.95;29.05;;;;;;;18.87;99.19;101125.16;5029877;28;21546;-84
2022/08/18 07:28:48;;;;;;;40.90;26.52;;;;;;;18.84;99.05;101113.22;5027028;28;20029;-84
2022/08/18 07:31:35;;;;;;;37.27;24.03;;;;;;;18.84;98.01;101121.13;5034465;28;20078;-84
2022/08/18 07:34:07;;;;;;;35.95;20.40;;;;;;;18.92;97.52;101116.66;5065687;28;20140;-83
2022/08/18 07:36:46;;;;;;;34.13;21.23;;;;;;;18.97;97.02;101109.00;5037604;28;20029;-84
2022/08/18 07:39:43;;;;;;;32.88;19.50;;;;;;;19.19;95.75;101110.38;5046959;28;20085;-83
2022/08/18 07:42:23;;;;;;;27.95;17.38;;;;;;;19.37;93.67;101101.81;5065196;28;20051;-84
2022/08/18 07:45:04;;;;;;;22.00;16.75;;;;;;;19.71;90.48;101101.72;5032372;28;20039;-84
2022/08/18 07:47:41;;;;;;;21.52;13.73;;;;;;;19.65;87.79;101095.47;5042533;28;20089;-82
2022/08/18 07:50:06;;;;;;;20.90;13.02;;;;;;;19.55;88.16;101095.09;5031693;28;20033;-85
2022/08/18 07:52:40;;;;;;;18.27;11.73;;;;;;;19.63;87.98;101093.03;5028134;28;20020;-83
2022/08/18 07:55:26;;;;;;;15.18;11.32;;;;;;;19.80;87.60;101097.84;5030496;28;20032;-84
2022/08/18 07:57:59;;;;;;;18.02;12.07;;;;;;;19.79;86.19;101090.97;5052659;28;20028;-85
2022/08/18 08:00:41;;;;;;;18.03;11.83;;;;;;;19.90;85.74;101106.09;5055413;28;20036;-82
2022/08/18 08:03:45;;;;;;;15.60;10.43;;;;;;;19.90;84.23;101098.19;5028745;28;20037;-83
2022/08/18 08:06:40;;;;;;;16.83;10.25;;;;;;;19.91;82.50;101099.81;5026923;28;20119;-83
2022/08/18 08:09:24;;;;;;;12.52;9.32;;;;;;;19.91;83.02;101107.72;5045234;28;20029;-85
2022/08/18 08:12:01;;;;;;;13.98;10.35;;;;;;;19.92;83.61;101101.41;5033403;28;20409;-83
2022/08/18 08:14:35;;;;;;;17.90;10.23;;;;;;;20.00;83.14;101105.63;5049256;28;20029;-82
2022/08/18 08:17:22;;;;;;;14.52;10.18;;;;;;;19.97;83.21;101109.50;5033810;28;20036;-82
2022/08/18 08:20:16;;;;;;;15.80;10.45;;;;;;;19.99;83.41;101109.28;5031723;28;20032;-81
2022/08/18 08:23:21;;;;;;;16.48;11.00;;;;;;;20.02;83.28;101116.75;5050451;28;20033;-82
2022/08/18 08:26:20;;;;;;;18.60;10.80;;;;;;;20.02;82.85;101119.38;5062312;28;20040;-82
2022/08/18 08:29:24;;;;;;;13.60;9.73;;;;;;;20.11;83.10;101122.59;5047209;28;20206;-81
2022/08/18 08:32:12;;;;;;;15.23;10.85;;;;;;;20.19;81.26;101123.16;5047351;28;20036;-84
2022/08/18 08:34:44;;;;;;;16.50;10.98;;;;;;;20.17;81.65;101122.56;5049077;28;20039;-82
2022/08/18 08:37:15;;;;;;;16.67;10.30;;;;;;;20.23;81.76;101126.97;5051311;28;20032;-82
2022/08/18 08:39:50;;;;;;;13.50;9.05;;;;;;;20.35;80.98;101124.47;5050315;28;20037;-85
2022/08/18 08:42:36;;;;;;;15.25;10.00;;;;;;;20.32;80.79;101132.78;5053332;28;20129;-84
2022/08/18 08:45:14;;;;;;;16.88;10.50;;;;;;;20.30;80.34;101131.38;5049394;28;20078;-83
2022/08/18 08:48:00;;;;;;;15.27;8.35;;;;;;;20.23;80.95;101140.13;5042976;28;20527;-83
2022/08/18 08:50:29;;;;;;;9.70;7.70;;;;;;;20.37;80.79;101140.84;5024261;28;20115;-83
2022/08/18 08:53:26;;;;;;;14.52;9.30;;;;;;;20.42;80.69;101138.38;5063700;28;20071;-83
2022/08/18 08:56:05;;;;;;;11.30;8.52;;;;;;;20.52;78.87;101145.00;5029383;28;20029;-82
2022/08/18 08:58:44;;;;;;;11.05;8.63;;;;;;;20.55;77.01;101155.94;5065460;28;20066;-83
2022/08/18 09:01:25;;;;;;;11.90;9.23;;;;;;;20.51;76.71;101138.94;5047825;28;20425;-81
2022/08/18 09:04:30;;;;;;;12.85;8.95;;;;;;;20.43;78.17;101140.00;5044365;28;20048;-83
2022/08/18 09:07:26;;;;;;;10.50;7.85;;;;;;;20.52;77.85;101142.38;5040834;28;20046;-83
2022/08/18 09:10:40;;;;;;;15.93;10.55;;;;;;;20.68;77.02;101148.97;5052957;28;20381;-83
2022/08/18 09:13:30;;;;;;;15.45;10.75;;;;;;;20.73;77.83;101142.03;5016993;28;20080;-84
2022/08/18 09:16:25;;;;;;;13.55;9.52;;;;;;;20.82;76.55;101134.69;5030380;28;20056;-81
2022/08/18 09:19:14;;;;;;;13.05;9.35;;;;;;;20.92;76.15;101131.53;5050675;28;20046;-83
2022/08/18 09:22:17;;;;;;;10.20;8.43;;;;;;;21.14;75.09;101129.31;5016941;28;20135;-82
2022/08/18 09:24:51;;;;;;;12.32;9.40;;;;;;;21.22;75.11;101115.03;5034567;28;20028;-83
2022/08/18 09:27:50;;;;;;;15.13;8.18;;;;;;;21.27;73.08;101109.94;5038665;28;20032;-83
2022/08/18 09:30:38;;;;;;;9.32;7.35;;;;;;;21.38;73.47;101109.19;5039328;28;20031;-83
2022/08/18 09:33:13;;;;;;;10.98;7.25;;;;;;;21.48;72.51;101112.13;5047112;28;20068;-83
2022/08/18 09:36:16;;;;;;;11.82;8.90;;;;;;;21.66;71.39;101118.41;5061832;28;20029;-85
2022/08/18 09:41:58;;;;;;;13.52;9.48;;;;;;;21.62;72.00;101122.53;5070872;28;20056;-85
2022/08/18 09:44:46;;;;;;;15.10;9.25;;;;;;;21.71;72.28;101126.47;5062139;28;20033;-83
2022/08/18 09:47:32;;;;;;;16.23;9.88;;;;;;;22.07;71.32;101115.03;5064447;28;20048;-82
2022/08/18 09:50:04;;;;;;;11.55;8.15;;;;;;;22.49;69.64;101115.06;5024207;28;20068;-83
2022/08/18 09:52:32;;;;;;;13.27;7.82;;;;;;;23.17;66.78;101109.44;5050340;28;20033;-83
2022/08/18 09:54:57;;;;;;;10.30;8.55;;;;;;;23.52;64.93;101109.38;5038748;28;20032;-84
2022/08/18 09:57:23;;;;;;;15.10;9.25;;;;;;;23.69;63.51;101104.13;5033830;28;20124;-83
2022/08/18 09:59:52;;;;;;;14.43;7.80;;;;;;;23.97;63.22;101100.72;5069103;28;20502;-82
2022/08/18 10:02:34;;;;;;;11.27;6.82;;;;;;;24.24;62.26;101095.63;5035476;28;20024;-82
2022/08/18 10:05:18;;;;;;;10.80;7.60;;;;;;;24.33;61.49;101098.66;5057049;28;20040;-86
2022/08/18 10:08:13;;;;;;;12.13;7.88;;;;;;;24.37;61.36;101106.94;5048798;28;20064;-83
2022/08/18 10:11:17;;;;;;;14.07;8.95;;;;;;;24.30;61.18;101104.47;4980162;28;20116;-82
2022/08/18 10:14:06;;;;;;;11.43;8.07;;;;;;;24.31;61.47;101102.59;5049576;28;20410;-85
2022/08/18 10:16:47;;;;;;;10.27;8.00;;;;;;;24.36;60.75;101105.34;5035359;28;20024;-84
2022/08/18 10:19:25;;;;;;;9.05;6.22;;;;;;;24.38;60.58;101104.06;5051031;28;20036;-84
2022/08/18 10:21:54;;;;;;;15.32;6.88;;;;;;;24.15;61.44;101102.34;5052870;28;20039;-82
2022/08/18 10:24:22;;;;;;;11.10;7.68;;;;;;;24.07;61.75;101100.09;5035586;28;20496;-82
2022/08/18 10:26:47;;;;;;;11.35;7.40;;;;;;;23.93;62.73;101096.13;5034561;28;20036;-83
2022/08/18 10:29:22;;;;;;;11.43;7.20;;;;;;;24.10;62.83;101099.63;5037211;28;20131;-83
2022/08/18 10:32:00;;;;;;;10.07;8.52;;;;;;;24.05;62.28;101099.50;5051985;28;20028;-82
2022/08/18 10:34:47;;;;;;;19.88;8.00;;;;;;;23.77;62.13;101100.31;5054016;28;20040;-83
2022/08/18 10:37:24;;;;;;;12.43;6.45;;;;;;;23.94;63.12;101095.91;5053885;28;20028;-82
2022/08/18 10:40:08;;;;;;;10.75;7.65;;;;;;;23.98;62.22;101106.81;5054829;28;20032;-84
2022/08/18 10:42:46;;;;;;;9.23;6.72;;;;;;;24.02;62.27;101102.66;5055133;28;20103;-81
2022/08/18 10:45:24;;;;;;;12.75;7.47;;;;;;;24.02;62.75;101100.00;5054760;28;20393;-81
2022/08/18 10:48:15;;;;;;;7.70;5.85;;;;;;;24.04;63.13;101108.53;5051365;28;20082;-83
2022/08/18 10:50:48;;;;;;;9.05;7.75;;;;;;;23.85;63.36;101103.41;5052645;28;20031;-83
2022/08/18 10:53:17;;;;;;;13.55;8.40;;;;;;;23.64;63.44;101096.91;5056532;28;20090;-85
2022/08/18 10:56:01;;;;;;;11.07;8.02;;;;;;;23.61;63.68;101100.03;5065020;28;20085;-85
2022/08/18 10:58:47;;;;;;;9.88;8.43;;;;;;;23.50;63.55;101098.22;5047174;28;20062;-82
2022/08/18 11:01:38;;;;;;;12.57;7.30;;;;;;;23.85;63.03;101089.38;5052591;28;20532;-82
2022/08/18 11:04:10;;;;;;;11.88;8.05;;;;;;;23.70;62.16;101090.69;5051055;28;20069;-83
2022/08/18 11:06:40;;;;;;;13.45;7.10;;;;;;;23.76;61.91;101082.84;5044209;28;20036;-83
2022/08/18 11:09:07;;;;;;;6.32;5.72;;;;;;;24.00;61.87;101083.56;5051503;28;20039;-84
2022/08/18 11:11:41;;;;;;;9.13;6.28;;;;;;;23.95;61.68;101080.81;5055035;28;20028;-84
2022/08/18 11:14:32;;;;;;;8.43;5.78;;;;;;;24.00;61.41;101065.03;5047479;28;20044;-83
2022/08/18 11:17:27;;;;;;;12.65;6.82;;;;;;;23.96;61.76;101058.56;5050668;28;20029;-84
2022/08/18 11:19:53;;;;;;;9.38;6.13;;;;;;;23.98;60.35;101061.78;5033020;28;20498;-84
2022/08/18 11:22:33;;;;;;;9.18;5.93;;;;;;;23.78;61.29;101070.97;5035350;28;20401;-82
2022/08/18 11:25:00;;;;;;;7.40;5.85;;;;;;;23.82;61.60;101072.13;5053078;28;20063;-84
2022/08/18 11:27:29;;;;;;;9.45;6.18;;;;;;;23.88;60.66;101065.91;5066521;28;20032;-83
2022/08/18 11:29:59;;;;;;;7.50;5.60;;;;;;;23.88;61.29;101067.72;5036941;28;20041;-85
2022/08/18 11:32:32;;;;;;;8.40;5.82;;;;;;;23.75;61.11;101068.78;5028430;28;20037;-81
2022/08/18 11:34:58;;;;;;;10.07;5.57;;;;;;;23.89;60.88;101070.13;5052433;28;20036;-83
2022/08/18 11:37:32;;;;;;;8.40;5.55;;;;;;;24.17;60.28;101060.53;5065273;28;20077;-83
2022/08/18 11:40:00;;;;;;;7.65;5.60;;;;;;;24.54;58.44;101056.59;5042712;28;20075;-83
2022/08/18 11:42:34;;;;;;;9.38;5.75;;;;;;;24.63;58.98;101048.00;5048823;28;20090;-83
2022/08/18 11:45:15;;;;;;;8.52;5.60;;;;;;;24.40;59.32;101045.53;5052753;28;20090;-83
2022/08/18 11:48:00;;;;;;;8.48;5.40;;;;;;;24.35;60.19;101048.88;5046638;28;20048;-83
2022/08/18 11:50:29;;;;;;;7.85;5.55;;;;;;;24.10;60.72;101049.28;5068499;28;20037;-83
2022/08/18 11:52:55;;;;;;;10.00;5.18;;;;;;;24.14;61.10;101055.72;5043036;28;20156;-83